Time;durP1;ratioP1;P1;durP2;ratioP2;P2;SDS_P1;SDS_P2;PMS_P1;PMS_P2;Temp;Humidity;BMP_temperature;BMP_pressure;BME280_temperature;BME280_humidity;BME280_pressure;Samples;Min_cycle;Max_cycle;Signal;HPM_P1;HPM_P2
2021/01/05 00:00:12;;;;;;;6.32;4.15;;;9.10;72.80;;;;;;5056121;28;20032;-67
2021/01/05 00:02:38;;;;;;;8.55;4.10;;;9.10;73.20;;;;;;5056193;28;20072;-67
2021/01/05 00:05:04;;;;;;;7.35;4.55;;;9.10;73.00;;;;;;5056049;28;20032;-67
2021/01/05 00:07:31;;;;;;;6.72;3.92;;;9.20;72.80;;;;;;5054285;28;20474;-68
2021/01/05 00:09:56;;;;;;;8.63;4.13;;;9.30;72.70;;;;;;5056503;28;20017;-68
2021/01/05 00:12:22;;;;;;;7.18;4.03;;;9.30;72.60;;;;;;5057436;28;20052;-66
2021/01/05 00:14:48;;;;;;;7.25;4.00;;;9.30;72.60;;;;;;5063142;28;20104;-66
2021/01/05 00:17:16;;;;;;;7.10;4.20;;;9.30;72.60;;;;;;5056139;28;20072;-66
2021/01/05 00:19:43;;;;;;;6.28;3.88;;;9.30;72.40;;;;;;5055877;28;20025;-67
2021/01/05 00:22:09;;;;;;;6.93;4.10;;;9.30;72.10;;;;;;5055779;28;20033;-66
2021/01/05 00:24:35;;;;;;;6.57;4.15;;;9.30;71.90;;;;;;5055481;28;20032;-65
2021/01/05 00:27:02;;;;;;;6.90;3.90;;;9.30;72.00;;;;;;5055418;28;20429;-66
2021/01/05 00:29:28;;;;;;;6.50;3.80;;;9.30;72.20;;;;;;5055435;28;20029;-67
2021/01/05 00:32:24;;;;;;;7.63;4.47;;;9.30;72.10;;;;;;5055793;28;20044;-67
2021/01/05 00:34:50;;;;;;;5.00;3.30;;;9.30;71.80;;;;;;5050636;28;20036;-66
2021/01/05 00:37:18;;;;;;;6.70;3.97;;;9.20;71.40;;;;;;5055495;28;20083;-66
2021/01/05 00:39:44;;;;;;;5.10;3.42;;;9.20;71.40;;;;;;5055248;28;20359;-69
2021/01/05 00:42:10;;;;;;;5.30;3.53;;;9.20;71.70;;;;;;5055019;28;20041;-69
2021/01/05 00:44:36;;;;;;;6.05;3.58;;;9.10;71.30;;;;;;5055034;28;20124;-68
2021/01/05 00:47:03;;;;;;;4.88;2.97;;;9.10;71.50;;;;;;5054918;28;20521;-66
2021/01/05 00:49:28;;;;;;;6.22;3.05;;;9.10;71.40;;;;;;5054796;28;20028;-66
2021/01/05 00:51:54;;;;;;;5.15;2.50;;;9.10;71.50;;;;;;5055200;28;20037;-67
2021/01/05 00:54:20;;;;;;;5.53;3.33;;;9.10;71.40;;;;;;5053523;28;20025;-67
2021/01/05 00:57:07;;;;;;;5.03;2.47;;;9.00;71.10;;;;;;5054752;28;20116;-67
2021/01/05 00:59:33;;;;;;;4.47;2.70;;;9.10;71.30;;;;;;5054674;28;20033;-67
2021/01/05 01:01:59;;;;;;;4.10;2.53;;;9.10;71.00;;;;;;5053279;28;20075;-68
2021/01/05 01:04:26;;;;;;;3.60;2.25;;;9.20;70.90;;;;;;5054809;28;20029;-68
2021/01/05 01:06:53;;;;;;;2.75;1.52;;;9.20;70.60;;;;;;5054685;28;20473;-67
2021/01/05 01:12:02;;;;;;;1.40;0.95;;;9.20;70.90;;;;;;4993884;28;20046;-71
2021/01/05 01:14:28;;;;;;;3.03;1.00;;;9.20;70.90;;;;;;4995338;28;20041;-69
2021/01/05 01:16:55;;;;;;;2.25;0.60;;;9.20;70.80;;;;;;4995344;28;20031;-69
2021/01/05 01:19:21;;;;;;;1.55;0.73;;;9.20;70.50;;;;;;4995189;28;20027;-69
2021/01/05 01:21:47;;;;;;;1.45;0.60;;;9.20;70.70;;;;;;4995112;28;20042;-70
2021/01/05 01:24:15;;;;;;;2.30;0.95;;;9.20;70.60;;;;;;4994982;28;20057;-70
2021/01/05 01:26:41;;;;;;;2.22;0.93;;;9.20;70.80;;;;;;4994817;28;20041;-68
2021/01/05 01:29:07;;;;;;;2.95;1.30;;;9.20;70.50;;;;;;4994999;28;20538;-71
2021/01/05 01:31:33;;;;;;;2.17;1.10;;;9.20;70.70;;;;;;4994899;28;20034;-71
2021/01/05 01:33:58;;;;;;;2.85;1.35;;;9.20;70.50;;;;;;4994934;28;20031;-70
2021/01/05 01:36:24;;;;;;;2.63;1.20;;;9.20;70.40;;;;;;4994904;28;20077;-69
2021/01/05 01:38:50;;;;;;;2.53;1.40;;;9.30;70.30;;;;;;4994618;28;20098;-69
2021/01/05 01:41:16;;;;;;;4.50;1.55;;;9.30;70.20;;;;;;4994560;28;20113;-70
2021/01/05 01:43:41;;;;;;;6.35;1.35;;;9.30;70.10;;;;;;4994597;28;20030;-70
2021/01/05 01:46:08;;;;;;;3.40;1.50;;;9.30;70.50;;;;;;4994603;28;20073;-70
2021/01/05 01:48:33;;;;;;;3.65;1.70;;;9.20;70.50;;;;;;4994709;28;20026;-71
2021/01/05 01:51:02;;;;;;;2.97;1.90;;;9.20;70.70;;;;;;4994733;28;20031;-70
2021/01/05 01:53:40;;;;;;;3.17;2.17;;;9.20;70.80;;;;;;4994467;28;20392;-70
2021/01/05 01:56:27;;;;;;;3.78;2.15;;;9.20;70.90;;;;;;4994356;28;20109;-70
2021/01/05 01:59:03;;;;;;;3.97;2.20;;;9.10;70.40;;;;;;4994328;28;20030;-68
2021/01/05 02:02:04;;;;;;;4.00;2.38;;;9.10;71.10;;;;;;5009327;28;20088;-71
2021/01/05 02:04:54;;;;;;;3.75;2.33;;;9.00;71.10;;;;;;4994303;28;20387;-68
2021/01/05 02:07:23;;;;;;;3.67;2.22;;;8.90;71.50;;;;;;4994332;28;20368;-70
2021/01/05 02:10:00;;;;;;;4.38;2.55;;;8.90;71.30;;;;;;4993885;28;20410;-71
2021/01/05 02:12:31;;;;;;;4.05;2.25;;;8.90;71.70;;;;;;4993944;28;20029;-69
2021/01/05 02:15:18;;;;;;;3.90;2.30;;;8.90;71.80;;;;;;4994115;28;20053;-70
2021/01/05 02:18:08;;;;;;;3.63;2.10;;;8.90;71.80;;;;;;4993946;28;20367;-71
2021/01/05 02:20:40;;;;;;;3.53;2.03;;;8.90;71.90;;;;;;4993900;28;20034;-70
2021/01/05 02:23:33;;;;;;;3.95;2.08;;;9.00;71.40;;;;;;4994189;28;20446;-69
2021/01/05 02:26:20;;;;;;;3.15;1.90;;;9.00;71.70;;;;;;4994326;28;20038;-71
2021/01/05 02:28:56;;;;;;;3.33;1.80;;;9.00;71.60;;;;;;4994132;28;20062;-71
2021/01/05 02:31:58;;;;;;;3.85;2.13;;;9.00;71.00;;;;;;4993447;28;20076;-70
2021/01/05 02:35:00;;;;;;;3.80;2.33;;;8.90;71.40;;;;;;4992665;28;20384;-70
2021/01/05 02:37:38;;;;;;;4.35;2.42;;;8.80;71.10;;;;;;4994157;28;20153;-72
2021/01/05 02:40:47;;;;;;;5.00;2.50;;;8.80;71.40;;;;;;4994529;28;20103;-71
2021/01/05 02:43:24;;;;;;;5.90;2.53;;;8.80;71.50;;;;;;4993934;28;20038;-70
2021/01/05 02:46:18;;;;;;;4.85;2.85;;;8.80;71.10;;;;;;4993772;28;20023;-68
2021/01/05 02:48:53;;;;;;;;;;;8.80;71.20;;;;;;4993826;28;20042;-68
2021/01/05 02:51:47;;;;;;;3.88;2.05;;;8.80;70.90;;;;;;4994243;28;19955;-69
2021/01/05 02:54:28;;;;;;;4.22;2.30;;;8.90;70.80;;;;;;4994104;28;20034;-69
2021/01/05 02:57:18;;;;;;;4.15;2.20;;;8.90;70.70;;;;;;4994006;28;20022;-69
2021/01/05 03:00:12;;;;;;;3.92;2.45;;;9.00;70.90;;;;;;4993635;28;20037;-68
2021/01/05 03:03:23;;;;;;;4.18;2.55;;;9.00;70.90;;;;;;4993614;28;20041;-69
2021/01/05 03:06:11;;;;;;;4.93;2.60;;;9.00;70.90;;;;;;4994200;28;20391;-70
2021/01/05 03:08:45;;;;;;;4.40;2.72;;;9.10;70.60;;;;;;4994288;28;20108;-69
2021/01/05 03:11:20;;;;;;;7.05;3.30;;;9.10;70.70;;;;;;4994217;28;20069;-70
2021/01/05 03:14:04;;;;;;;6.60;2.92;;;9.10;70.90;;;;;;4993675;28;20108;-69
2021/01/05 03:16:35;;;;;;;6.13;3.03;;;9.00;71.50;;;;;;4993735;28;20515;-70
2021/01/05 03:19:25;;;;;;;5.95;3.38;;;9.10;71.70;;;;;;4993305;28;20025;-69
2021/01/05 03:21:56;;;;;;;5.70;2.90;;;9.10;72.00;;;;;;4993597;28;20030;-69
2021/01/05 03:24:24;;;;;;;5.65;3.05;;;9.10;72.00;;;;;;4993561;28;20026;-69
2021/01/05 03:26:51;;;;;;;4.60;2.97;;;9.10;71.80;;;;;;4993424;28;20030;-69
2021/01/05 03:29:18;;;;;;;5.53;3.10;;;9.10;71.90;;;;;;4993638;28;20033;-69
2021/01/05 03:31:59;;;;;;;4.70;3.00;;;9.10;72.50;;;;;;4993448;28;20030;-70
2021/01/05 03:34:25;;;;;;;6.20;3.65;;;9.10;72.80;;;;;;4993915;28;20476;-69
2021/01/05 03:36:51;;;;;;;4.97;3.10;;;9.00;72.20;;;;;;4992123;28;20022;-70
2021/01/05 03:39:17;;;;;;;4.70;2.85;;;8.90;72.40;;;;;;4993401;28;20027;-70
2021/01/05 03:41:43;;;;;;;6.05;3.03;;;8.90;73.20;;;;;;4993972;28;20057;-70
2021/01/05 03:44:09;;;;;;;5.60;3.10;;;8.90;73.30;;;;;;4996833;28;20080;-69
2021/01/05 03:46:35;;;;;;;6.63;2.88;;;8.90;73.00;;;;;;4999109;28;20044;-69
2021/01/05 03:49:01;;;;;;;5.22;3.05;;;8.90;73.50;;;;;;5000138;28;20024;-68
2021/01/05 03:51:27;;;;;;;4.78;2.80;;;8.90;73.10;;;;;;4999386;28;20030;-71
2021/01/05 03:53:53;;;;;;;5.22;2.40;;;8.90;72.80;;;;;;4996705;28;20029;-70
2021/01/05 03:56:18;;;;;;;5.57;2.78;;;8.90;72.80;;;;;;4996446;28;20089;-70
2021/01/05 03:58:44;;;;;;;5.68;2.92;;;8.90;73.60;;;;;;4996409;28;20022;-70
2021/01/05 04:01:10;;;;;;;7.95;3.35;;;8.90;72.80;;;;;;4996348;28;20112;-69
2021/01/05 04:03:36;;;;;;;5.65;3.20;;;8.80;72.60;;;;;;4996386;28;20030;-70
2021/01/05 04:06:02;;;;;;;5.90;3.55;;;8.80;72.90;;;;;;4996467;28;20023;-69
2021/01/05 04:08:29;;;;;;;5.75;3.63;;;8.80;72.90;;;;;;4996358;28;20041;-70
2021/01/05 04:10:54;;;;;;;5.65;4.13;;;8.80;72.60;;;;;;4996399;28;20053;-69
2021/01/05 04:13:20;;;;;;;6.32;3.90;;;8.80;72.50;;;;;;4997068;28;20122;-70
2021/01/05 04:15:46;;;;;;;7.32;4.57;;;8.80;72.80;;;;;;4996932;28;20026;-69
2021/01/05 04:18:12;;;;;;;6.85;4.57;;;8.80;72.80;;;;;;4996381;28;20041;-69
2021/01/05 04:20:37;;;;;;;7.07;4.03;;;8.80;72.70;;;;;;4996057;28;20476;-69
2021/01/05 04:23:03;;;;;;;6.78;4.28;;;8.90;72.60;;;;;;4996284;28;20066;-72
2021/01/05 04:25:29;;;;;;;6.20;3.92;;;8.90;72.60;;;;;;4996255;28;20455;-70
2021/01/05 04:27:55;;;;;;;6.80;3.80;;;8.90;72.50;;;;;;4996032;28;20069;-71
2021/01/05 04:30:27;;;;;;;6.30;3.85;;;8.90;72.50;;;;;;4996148;28;20026;-70
2021/01/05 04:32:55;;;;;;;5.10;3.38;;;8.80;72.70;;;;;;4996207;28;20034;-71
2021/01/05 04:35:22;;;;;;;6.28;3.83;;;8.70;72.40;;;;;;4996034;28;20153;-69
2021/01/05 04:37:49;;;;;;;4.72;2.97;;;8.80;72.80;;;;;;4995607;28;20373;-70
2021/01/05 04:40:27;;;;;;;4.72;2.83;;;8.80;72.60;;;;;;4995529;28;20562;-69
2021/01/05 04:43:09;;;;;;;4.57;2.90;;;8.90;73.30;;;;;;4995715;28;20081;-69
2021/01/05 04:45:49;;;;;;;4.38;2.80;;;8.90;72.70;;;;;;4995734;28;20018;-71
2021/01/05 04:48:33;;;;;;;4.80;2.70;;;9.00;73.20;;;;;;4995502;28;20030;-70
2021/01/05 04:51:02;;;;;;;4.05;2.60;;;9.00;73.10;;;;;;4994276;28;20111;-70
2021/01/05 04:53:43;;;;;;;4.53;2.75;;;9.10;72.70;;;;;;4994994;28;20035;-69
2021/01/05 04:56:14;;;;;;;4.10;2.80;;;9.20;72.60;;;;;;4995781;28;20046;-69
2021/01/05 04:58:57;;;;;;;4.72;2.10;;;9.20;72.60;;;;;;4995558;28;20037;-71
2021/01/05 05:01:26;;;;;;;3.53;1.95;;;9.30;72.60;;;;;;4995246;28;20033;-70
2021/01/05 05:04:17;;;;;;;6.25;1.85;;;9.30;72.60;;;;;;4995349;28;20033;-72
2021/01/05 05:06:49;;;;;;;3.95;1.35;;;9.30;73.20;;;;;;4995306;28;20026;-70
2021/01/05 05:09:26;;;;;;;4.13;1.27;;;9.30;72.90;;;;;;4995345;28;20030;-69
2021/01/05 05:12:34;;;;;;;4.88;1.45;;;9.30;73.00;;;;;;4995051;28;20484;-68
2021/01/05 05:15:26;;;;;;;3.28;1.02;;;9.40;74.10;;;;;;4995136;28;20022;-69
2021/01/05 05:18:10;;;;;;;2.78;0.90;;;9.40;74.00;;;;;;4995130;28;20037;-69
2021/01/05 05:21:04;;;;;;;4.95;1.42;;;9.40;73.30;;;;;;5009898;28;20025;-69
2021/01/05 05:23:48;;;;;;;4.68;1.60;;;9.30;73.70;;;;;;4995275;28;20038;-70
2021/01/05 05:26:35;;;;;;;3.55;1.55;;;9.30;73.90;;;;;;4994888;28;20101;-70
2021/01/05 05:29:16;;;;;;;4.25;1.70;;;9.20;74.00;;;;;;4995072;28;20080;-69
2021/01/05 05:31:44;;;;;;;3.55;1.83;;;9.20;74.00;;;;;;4994911;28;20037;-69
2021/01/05 05:34:29;;;;;;;3.58;1.70;;;9.10;73.30;;;;;;4994671;28;20064;-69
2021/01/05 05:36:54;;;;;;;3.55;1.80;;;9.00;73.30;;;;;;4994601;28;20064;-70
2021/01/05 05:39:41;;;;;;;3.83;1.40;;;9.00;73.40;;;;;;4994824;28;20062;-69
2021/01/05 05:42:21;;;;;;;2.15;1.45;;;9.00;74.00;;;;;;4994613;28;20042;-71
2021/01/05 05:44:48;;;;;;;3.05;1.65;;;9.00;74.00;;;;;;4994564;28;20018;-68
2021/01/05 05:47:26;;;;;;;4.15;1.50;;;8.90;73.40;;;;;;4994577;28;20030;-70
2021/01/05 05:50:08;;;;;;;2.55;1.40;;;8.90;73.60;;;;;;4994546;28;20337;-69
2021/01/05 05:52:51;;;;;;;3.10;1.60;;;8.90;74.00;;;;;;4994604;28;20018;-70
2021/01/05 05:56:00;;;;;;;2.75;1.60;;;8.90;74.20;;;;;;4994364;28;20041;-70
2021/01/05 05:58:37;;;;;;;2.47;1.70;;;8.80;74.10;;;;;;4994352;28;20372;-69
2021/01/05 06:01:10;;;;;;;3.88;2.05;;;8.80;73.70;;;;;;4994085;28;20030;-71
2021/01/05 06:03:36;;;;;;;5.23;1.97;;;8.70;73.70;;;;;;4994325;28;20038;-70
2021/01/05 06:06:03;;;;;;;5.38;2.30;;;8.60;74.00;;;;;;4993403;28;20256;-69
2021/01/05 06:08:29;;;;;;;5.10;1.98;;;8.60;74.30;;;;;;4994293;28;20502;-73
2021/01/05 06:10:55;;;;;;;4.97;2.80;;;8.70;74.30;;;;;;4993938;28;20046;-70
2021/01/05 06:13:21;;;;;;;4.40;2.13;;;8.60;73.90;;;;;;4994055;28;20030;-71
2021/01/05 06:15:46;;;;;;;3.85;1.90;;;8.70;73.90;;;;;;4994050;28;20026;-69
2021/01/05 06:18:15;;;;;;;3.75;2.10;;;8.70;73.60;;;;;;4993987;28;20035;-71
2021/01/05 06:20:40;;;;;;;2.50;1.67;;;8.70;73.50;;;;;;4993713;28;20026;-68
2021/01/05 06:23:07;;;;;;;3.97;2.00;;;8.70;73.60;;;;;;4994177;28;20038;-69
2021/01/05 06:25:33;;;;;;;2.95;1.90;;;8.70;74.20;;;;;;4994236;28;20022;-69
2021/01/05 06:27:59;;;;;;;4.90;2.03;;;8.70;73.70;;;;;;4993754;28;20060;-69
2021/01/05 06:30:25;;;;;;;4.43;1.73;;;8.70;73.50;;;;;;4993706;28;20036;-73
2021/01/05 06:32:51;;;;;;;3.72;1.88;;;8.70;73.40;;;;;;4993808;28;20034;-71
2021/01/05 06:35:20;;;;;;;3.63;2.25;;;8.70;73.20;;;;;;4993672;28;20064;-70
2021/01/05 06:37:49;;;;;;;3.55;1.70;;;8.70;73.10;;;;;;4994319;28;20034;-71
2021/01/05 06:40:16;;;;;;;3.95;1.75;;;8.70;73.10;;;;;;4993734;28;20036;-71
2021/01/05 06:42:42;;;;;;;2.92;1.40;;;8.70;73.10;;;;;;4993877;28;20038;-70
2021/01/05 06:45:10;;;;;;;2.45;1.35;;;8.70;73.00;;;;;;4993585;28;20026;-70
2021/01/05 06:47:35;;;;;;;2.67;1.40;;;8.70;73.10;;;;;;4993796;28;20451;-70
2021/01/05 06:50:03;;;;;;;3.83;1.40;;;8.70;72.90;;;;;;4993576;28;20580;-71
2021/01/05 06:52:29;;;;;;;3.05;1.45;;;8.80;72.80;;;;;;4993446;28;20414;-69
2021/01/05 06:54:55;;;;;;;6.40;2.20;;;8.70;72.80;;;;;;4993918;28;20027;-70
2021/01/05 06:57:20;;;;;;;2.60;1.50;;;8.70;73.00;;;;;;4993896;28;20026;-69
2021/01/05 06:59:46;;;;;;;4.70;1.50;;;8.70;73.00;;;;;;4993854;28;20229;-69
2021/01/05 07:02:15;;;;;;;3.10;1.60;;;8.70;73.10;;;;;;4993836;28;20165;-70
2021/01/05 07:04:41;;;;;;;3.53;1.80;;;8.80;73.00;;;;;;4993679;28;20034;-69
2021/01/05 07:07:07;;;;;;;3.58;1.90;;;8.80;72.90;;;;;;4993794;28;20030;-71
2021/01/05 07:09:33;;;;;;;3.38;1.70;;;8.90;73.40;;;;;;4993228;28;20023;-71
2021/01/05 07:11:58;;;;;;;4.90;1.80;;;8.90;73.70;;;;;;4993365;28;20047;-71
2021/01/05 07:14:26;;;;;;;3.45;1.63;;;9.00;73.40;;;;;;4993490;28;20334;-70
2021/01/05 07:16:52;;;;;;;3.40;1.80;;;9.10;73.30;;;;;;4994647;28;20361;-70
2021/01/05 07:19:18;;;;;;;8.23;2.13;;;9.10;73.60;;;;;;4997169;28;20085;-70
2021/01/05 07:21:44;;;;;;;3.80;1.80;;;9.10;73.70;;;;;;4996927;28;20030;-71
2021/01/05 07:24:10;;;;;;;6.30;2.22;;;9.10;73.70;;;;;;4997123;28;20523;-70
2021/01/05 07:26:39;;;;;;;4.10;2.03;;;9.20;74.10;;;;;;5011979;28;20081;-70
2021/01/05 07:29:05;;;;;;;4.82;1.90;;;9.20;74.30;;;;;;4996958;28;20387;-70
2021/01/05 07:31:31;;;;;;;6.18;1.85;;;9.20;74.30;;;;;;4996855;28;20035;-70
2021/01/05 07:33:57;;;;;;;4.65;2.30;;;9.20;74.60;;;;;;4997046;28;20045;-70
2021/01/05 07:36:35;;;;;;;4.50;2.00;;;9.20;75.00;;;;;;4997211;28;20030;-71
2021/01/05 07:39:11;;;;;;;5.22;2.30;;;9.10;75.20;;;;;;4996628;28;20026;-71
2021/01/05 07:41:37;;;;;;;6.38;2.67;;;9.00;75.50;;;;;;4996787;28;20030;-70
2021/01/05 07:44:03;;;;;;;5.72;2.67;;;8.90;75.40;;;;;;4995427;28;20034;-71
2021/01/05 07:46:29;;;;;;;6.07;3.63;;;8.90;75.40;;;;;;4996862;28;20034;-70
2021/01/05 07:48:55;;;;;;;6.30;3.30;;;8.90;75.50;;;;;;4995407;28;20022;-70
2021/01/05 07:51:20;;;;;;;4.85;3.05;;;8.90;76.00;;;;;;4996633;28;20022;-70
2021/01/05 07:53:46;;;;;;;7.60;3.90;;;8.80;75.50;;;;;;4996642;28;20027;-70
2021/01/05 07:56:12;;;;;;;5.63;3.13;;;8.90;75.50;;;;;;4996519;28;20022;-71
2021/01/05 07:58:37;;;;;;;6.70;3.20;;;8.90;75.70;;;;;;4996464;28;20030;-70
2021/01/05 08:01:03;;;;;;;7.60;4.40;;;8.90;75.70;;;;;;4996369;28;20326;-70
2021/01/05 08:03:28;;;;;;;13.70;3.65;;;8.90;75.50;;;;;;4996539;28;20040;-68
2021/01/05 08:05:54;;;;;;;6.13;3.05;;;8.90;75.50;;;;;;4996644;28;20026;-70
2021/01/05 08:08:20;;;;;;;7.57;3.38;;;9.00;75.60;;;;;;4996391;28;20038;-71
2021/01/05 08:10:45;;;;;;;12.00;3.17;;;9.00;75.80;;;;;;4996113;28;20049;-70
2021/01/05 08:13:12;;;;;;;9.70;3.05;;;9.10;75.90;;;;;;4996159;28;20053;-70
2021/01/05 08:15:38;;;;;;;6.82;2.53;;;9.10;76.00;;;;;;4994974;28;20030;-70
2021/01/05 08:18:07;;;;;;;10.73;3.15;;;9.20;76.40;;;;;;4996100;28;20023;-72
2021/01/05 08:20:33;;;;;;;9.20;3.03;;;9.30;76.20;;;;;;4996025;28;20036;-72
2021/01/05 08:23:01;;;;;;;9.27;2.10;;;9.30;76.60;;;;;;4996113;28;20395;-71
2021/01/05 08:25:27;;;;;;;10.07;2.38;;;9.40;75.80;;;;;;4996139;28;20475;-73
2021/01/05 08:27:53;;;;;;;8.88;2.13;;;9.40;76.50;;;;;;4995381;28;20027;-71
2021/01/05 08:30:22;;;;;;;9.50;2.88;;;9.40;76.20;;;;;;4995661;28;20026;-72
2021/01/05 08:32:48;;;;;;;8.68;2.20;;;9.40;76.60;;;;;;4995636;28;20034;-70
2021/01/05 08:35:17;;;;;;;9.52;1.90;;;9.40;76.30;;;;;;4995771;28;20060;-71
2021/01/05 08:37:43;;;;;;;8.63;1.80;;;9.40;77.10;;;;;;4995822;28;20033;-74
2021/01/05 08:40:12;;;;;;;8.40;1.90;;;9.50;77.10;;;;;;4995794;28;20022;-72
2021/01/05 08:42:38;;;;;;;9.90;2.10;;;9.60;77.10;;;;;;5010611;28;20035;-72
2021/01/05 08:45:06;;;;;;;20.00;2.83;;;9.60;76.70;;;;;;4995864;28;20054;-69
2021/01/05 08:47:32;;;;;;;15.00;2.40;;;9.70;77.20;;;;;;4995331;28;20468;-71
2021/01/05 08:49:57;;;;;;;15.40;2.63;;;9.70;76.90;;;;;;4995127;28;20018;-71
2021/01/05 08:52:23;;;;;;;14.85;2.83;;;9.80;77.30;;;;;;4995331;28;20022;-70
2021/01/05 08:54:49;;;;;;;18.17;3.00;;;9.80;77.30;;;;;;4995478;28;20030;-70
2021/01/05 08:57:16;;;;;;;14.68;2.92;;;9.90;77.40;;;;;;4995687;28;20030;-71
2021/01/05 08:59:45;;;;;;;13.13;2.33;;;9.90;77.20;;;;;;4995270;28;20089;-73
2021/01/05 09:02:11;;;;;;;15.95;2.65;;;10.00;76.40;;;;;;4995318;28;20030;-72
2021/01/05 09:04:36;;;;;;;12.20;2.10;;;10.00;76.30;;;;;;4995387;28;20029;-72
2021/01/05 09:07:03;;;;;;;12.80;2.35;;;10.10;76.20;;;;;;4995417;28;20040;-72
2021/01/05 09:09:29;;;;;;;11.30;2.28;;;10.10;76.40;;;;;;4995145;28;20062;-71
2021/01/05 09:11:57;;;;;;;13.50;2.58;;;10.10;76.20;;;;;;4995111;28;20106;-71
2021/01/05 09:14:24;;;;;;;12.15;2.40;;;10.10;76.00;;;;;;4994963;28;20025;-72
2021/01/05 09:17:00;;;;;;;15.23;2.05;;;10.20;76.00;;;;;;4994961;28;20080;-72
2021/01/05 09:19:27;;;;;;;15.18;2.85;;;10.20;75.90;;;;;;4995135;28;20026;-69
2021/01/05 09:21:54;;;;;;;11.85;2.28;;;10.20;75.80;;;;;;4994911;28;20039;-70
2021/01/05 09:24:21;;;;;;;8.82;2.17;;;10.30;76.10;;;;;;4993557;28;20033;-73
2021/01/05 09:26:54;;;;;;;10.90;2.55;;;10.30;76.30;;;;;;4994851;28;20072;-69
2021/01/05 09:29:21;;;;;;;9.70;1.60;;;10.30;76.80;;;;;;4994771;28;20038;-70
2021/01/05 09:31:48;;;;;;;12.80;2.17;;;10.30;76.10;;;;;;4994691;28;20058;-71
2021/01/05 09:34:17;;;;;;;10.10;2.17;;;10.30;76.10;;;;;;4995128;28;20113;-71
2021/01/05 09:36:43;;;;;;;10.15;2.10;;;10.30;75.80;;;;;;4994769;28;20486;-71
2021/01/05 09:39:17;;;;;;;12.75;2.30;;;10.30;76.00;;;;;;4994613;28;20108;-71
2021/01/05 09:41:46;;;;;;;6.90;1.52;;;10.40;75.70;;;;;;4994849;28;20507;-71
2021/01/05 09:44:12;;;;;;;6.45;2.05;;;10.40;76.20;;;;;;4994590;28;20114;-71
2021/01/05 09:46:39;;;;;;;6.72;2.20;;;10.40;75.60;;;;;;4994648;28;20060;-70
2021/01/05 09:49:11;;;;;;;9.13;2.35;;;10.50;75.40;;;;;;4994389;28;20445;-70
2021/01/05 09:51:37;;;;;;;11.23;2.25;;;10.50;75.30;;;;;;4993632;28;20380;-72
2021/01/05 09:54:02;;;;;;;6.57;1.98;;;10.50;75.40;;;;;;4994104;28;20029;-72
2021/01/05 09:56:28;;;;;;;8.73;2.00;;;10.60;75.40;;;;;;4994624;28;20487;-72
2021/01/05 09:58:54;;;;;;;11.88;2.70;;;10.60;75.30;;;;;;4992437;28;20050;-71
2021/01/05 10:01:28;;;;;;;13.15;2.38;;;10.70;75.10;;;;;;4994310;28;20033;-71
2021/01/05 10:03:54;;;;;;;10.45;2.58;;;10.70;75.00;;;;;;4994648;28;20023;-71
2021/01/05 10:06:22;;;;;;;13.88;2.85;;;10.70;75.00;;;;;;4994883;28;20031;-71
2021/01/05 10:08:48;;;;;;;8.95;2.55;;;10.80;75.00;;;;;;4994507;28;20026;-71
2021/01/05 10:11:13;;;;;;;11.98;2.83;;;10.80;74.90;;;;;;4994728;28;20054;-70
2021/01/05 10:13:39;;;;;;;10.40;2.88;;;10.90;74.90;;;;;;4995011;28;20042;-71
2021/01/05 10:16:05;;;;;;;11.15;3.05;;;10.90;74.70;;;;;;4994452;28;20045;-72
2021/01/05 10:18:31;;;;;;;15.60;3.10;;;11.00;74.50;;;;;;4994561;28;20046;-73
2021/01/05 10:20:56;;;;;;;7.35;2.67;;;11.10;74.50;;;;;;4993807;28;20058;-72
2021/01/05 10:23:22;;;;;;;9.88;2.33;;;11.10;74.50;;;;;;4994046;28;20038;-72
2021/01/05 10:25:48;;;;;;;9.82;2.25;;;11.10;74.40;;;;;;4994106;28;20026;-72
2021/01/05 10:28:14;;;;;;;7.80;1.70;;;11.00;74.40;;;;;;4993945;28;20450;-71
2021/01/05 10:30:41;;;;;;;11.20;2.20;;;11.00;74.30;;;;;;4993781;28;20026;-70
2021/01/05 10:33:07;;;;;;;7.82;2.60;;;11.00;74.50;;;;;;4993988;28;20030;-72
2021/01/05 10:35:32;;;;;;;9.85;3.03;;;11.00;74.60;;;;;;5009416;28;20495;-74
2021/01/05 10:37:58;;;;;;;7.90;2.72;;;11.00;74.70;;;;;;4992610;28;20080;-74
2021/01/05 10:40:27;;;;;;;9.10;2.40;;;11.00;74.70;;;;;;4993648;28;20542;-72
2021/01/05 10:42:52;;;;;;;14.73;2.80;;;11.10;75.20;;;;;;4993841;28;20035;-73
2021/01/05 10:45:21;;;;;;;10.05;3.47;;;11.10;74.70;;;;;;4993440;28;20371;-72
2021/01/05 10:47:52;;;;;;;9.43;3.17;;;11.10;74.70;;;;;;4993802;28;20034;-73
2021/01/05 10:50:21;;;;;;;10.77;3.00;;;11.20;74.70;;;;;;4993396;28;20019;-72
2021/01/05 10:52:48;;;;;;;8.32;2.92;;;11.30;74.50;;;;;;4996511;28;20054;-70
2021/01/05 10:55:16;;;;;;;8.77;2.67;;;11.50;74.10;;;;;;4997635;28;20392;-70
2021/01/05 10:57:42;;;;;;;12.23;3.03;;;11.60;74.10;;;;;;4997408;28;20068;-71
2021/01/05 11:00:09;;;;;;;9.35;2.47;;;11.70;73.70;;;;;;4997369;28;20505;-71
2021/01/05 11:02:35;;;;;;;9.77;2.67;;;11.80;73.60;;;;;;4997338;28;20062;-70
2021/01/05 11:05:01;;;;;;;8.45;2.63;;;11.80;73.50;;;;;;4997336;28;20451;-71
2021/01/05 11:07:26;;;;;;;9.65;2.30;;;11.70;73.60;;;;;;4997617;28;20026;-72
2021/01/05 11:09:52;;;;;;;11.80;2.70;;;11.70;73.70;;;;;;4997221;28;20257;-70
2021/01/05 11:12:27;;;;;;;13.88;2.60;;;11.70;74.10;;;;;;4997543;28;20459;-71
2021/01/05 11:14:53;;;;;;;10.00;2.25;;;11.60;74.50;;;;;;5012259;28;20041;-71
2021/01/05 11:17:19;;;;;;;13.85;2.75;;;11.50;74.00;;;;;;4997426;28;20019;-72
2021/01/05 11:19:46;;;;;;;9.70;2.60;;;11.50;74.10;;;;;;4997247;28;20077;-71
2021/01/05 11:22:16;;;;;;;6.28;2.50;;;11.50;74.20;;;;;;4997096;28;20471;-72
2021/01/05 11:24:43;;;;;;;9.25;2.65;;;11.40;74.00;;;;;;4997259;28;20466;-72
2021/01/05 11:27:09;;;;;;;8.48;2.95;;;11.40;73.90;;;;;;4997202;28;20106;-71
2021/01/05 11:29:36;;;;;;;9.07;2.33;;;11.50;73.80;;;;;;4996911;28;20122;-71
2021/01/05 11:32:10;;;;;;;9.52;2.67;;;11.50;73.60;;;;;;4997012;28;20098;-73
2021/01/05 11:34:37;;;;;;;8.57;2.25;;;11.70;73.40;;;;;;4997086;28;20026;-70
2021/01/05 11:37:09;;;;;;;8.77;1.95;;;11.80;73.00;;;;;;4996957;28;20022;-70
2021/01/05 11:39:36;;;;;;;11.88;3.08;;;12.00;72.50;;;;;;4996832;28;20405;-71
2021/01/05 11:42:04;;;;;;;8.70;2.40;;;12.10;72.30;;;;;;4996689;28;20034;-70
2021/01/05 11:44:30;;;;;;;10.68;2.63;;;12.20;71.70;;;;;;4996740;28;20038;-72
2021/01/05 11:46:56;;;;;;;7.30;1.83;;;12.20;71.20;;;;;;4996796;28;20026;-72
2021/01/05 11:49:22;;;;;;;5.85;1.73;;;12.20;71.00;;;;;;4996593;28;20022;-71
2021/01/05 11:51:53;;;;;;;8.52;2.35;;;12.10;71.20;;;;;;4996455;28;20143;-71
2021/01/05 11:54:20;;;;;;;9.27;2.40;;;12.10;71.30;;;;;;4996387;28;20027;-71
2021/01/05 11:56:46;;;;;;;6.97;2.00;;;12.10;71.00;;;;;;4996838;28;20030;-72
2021/01/05 11:59:13;;;;;;;8.30;2.13;;;12.00;70.60;;;;;;4996452;28;20111;-71
2021/01/05 12:01:39;;;;;;;6.88;2.22;;;12.00;70.70;;;;;;4996316;28;20093;-74
2021/01/05 12:04:07;;;;;;;9.13;2.25;;;12.00;70.80;;;;;;4995188;28;20371;-73
2021/01/05 12:06:32;;;;;;;7.25;1.92;;;11.90;70.40;;;;;;4995245;28;20042;-70
2021/01/05 12:08:58;;;;;;;8.20;2.22;;;11.90;70.30;;;;;;4996222;28;20026;-72
2021/01/05 12:11:29;;;;;;;7.70;2.17;;;11.90;70.50;;;;;;4996270;28;20096;-72
2021/01/05 12:13:56;;;;;;;7.13;2.15;;;11.80;70.70;;;;;;4996222;28;20080;-72
2021/01/05 12:16:29;;;;;;;9.00;2.45;;;11.80;70.60;;;;;;4996141;28;20026;-71
2021/01/05 12:18:57;;;;;;;6.28;2.03;;;11.80;70.80;;;;;;4996116;28;20036;-72
2021/01/05 12:21:33;;;;;;;6.93;2.15;;;11.80;70.80;;;;;;4996105;28;20101;-73
2021/01/05 12:23:59;;;;;;;7.75;2.55;;;11.90;70.90;;;;;;4996143;28;20034;-72
2021/01/05 12:26:46;;;;;;;9.73;3.50;;;11.90;70.70;;;;;;4996216;28;20054;-72
2021/01/05 12:29:21;;;;;;;8.40;3.75;;;11.90;70.80;;;;;;4995877;28;20380;-72
2021/01/05 12:31:52;;;;;;;10.98;3.25;;;11.80;70.90;;;;;;4995942;28;20088;-73
2021/01/05 12:34:23;;;;;;;9.40;2.83;;;11.80;70.90;;;;;;4994450;28;20026;-72
2021/01/05 12:36:49;;;;;;;9.10;3.17;;;11.70;71.90;;;;;;4996095;28;20388;-72
2021/01/05 12:39:21;;;;;;;11.85;3.13;;;11.60;71.30;;;;;;4995690;28;20030;-71
2021/01/05 12:41:47;;;;;;;10.10;2.97;;;11.60;71.60;;;;;;4995710;28;20036;-71
2021/01/05 12:44:16;;;;;;;14.07;3.65;;;11.50;71.60;;;;;;4995573;28;20117;-71
2021/01/05 12:46:42;;;;;;;9.93;3.78;;;11.50;71.70;;;;;;4996124;28;20077;-71
2021/01/05 12:49:10;;;;;;;8.60;2.80;;;11.40;71.90;;;;;;4995889;28;20037;-72
2021/01/05 12:51:38;;;;;;;9.30;3.53;;;11.30;72.10;;;;;;4995427;28;20022;-71
2021/01/05 12:54:06;;;;;;;7.55;2.97;;;11.30;72.40;;;;;;4995505;28;20030;-72
2021/01/05 12:56:32;;;;;;;7.00;1.98;;;11.20;72.50;;;;;;4995507;28;20026;-73
2021/01/05 12:58:58;;;;;;;6.18;1.80;;;11.10;72.50;;;;;;4994307;28;20360;-70
2021/01/05 13:01:24;;;;;;;4.22;1.45;;;11.00;72.50;;;;;;4994184;28;20026;-71
2021/01/05 13:03:50;;;;;;;5.78;1.40;;;10.90;72.20;;;;;;4995453;28;20034;-72
2021/01/05 13:06:17;;;;;;;4.20;1.08;;;10.80;72.20;;;;;;4993732;28;20066;-70
2021/01/05 13:08:45;;;;;;;4.05;0.93;;;10.80;71.70;;;;;;4994984;28;20034;-72
2021/01/05 13:11:17;;;;;;;4.00;1.30;;;10.70;71.60;;;;;;4993791;28;20046;-75